createdAt,value
2022-09-23T00:00:19.504Z,19.20
2022-09-23T00:04:06.573Z,18.90
2022-09-23T00:07:33.530Z,19.30
2022-09-23T00:11:05.043Z,20.60
2022-09-23T00:14:31.940Z,18.90
2022-09-23T00:22:29.195Z,23.40
2022-09-23T00:26:01.163Z,20.30
2022-09-23T00:29:28.101Z,20.10
2022-09-23T00:32:57.044Z,20.60
2022-09-23T00:36:23.797Z,19.80
2022-09-23T00:39:51.220Z,21.60
2022-09-23T00:43:17.832Z,21.50
2022-09-23T00:46:45.835Z,21.30
2022-09-23T00:50:18.370Z,21.10
2022-09-23T00:53:45.630Z,22.10
2022-09-23T00:57:17.083Z,21.50
2022-09-23T01:00:44.060Z,20.00
2022-09-23T01:04:11.341Z,19.00
2022-09-23T01:07:38.378Z,18.80
2022-09-23T01:11:14.465Z,18.70
2022-09-23T01:14:54.335Z,16.70
2022-09-23T01:18:34.758Z,17.20
2022-09-23T01:22:11.273Z,16.40
2022-09-23T01:25:57.792Z,15.20
2022-09-23T01:29:48.040Z,13.60
2022-09-23T01:33:21.442Z,13.50
2022-09-23T01:36:54.087Z,14.00
2022-09-23T01:40:25.969Z,13.30
2022-09-23T01:44:00.947Z,12.30
2022-09-23T01:47:32.536Z,12.80
2022-09-23T01:51:03.805Z,13.20
2022-09-23T01:54:39.003Z,18.90
2022-09-23T01:58:10.329Z,31.30
2022-09-23T02:01:43.268Z,34.60
2022-09-23T02:05:15.871Z,32.40
2022-09-23T02:08:47.435Z,36.40
2022-09-23T02:12:20.522Z,41.80
2022-09-23T02:15:52.104Z,41.30
2022-09-23T02:19:28.624Z,39.30
2022-09-23T02:23:03.597Z,34.90
2022-09-23T02:26:36.359Z,35.20
2022-09-23T02:30:09.856Z,31.80
2022-09-23T02:33:40.937Z,28.00
2022-09-23T02:37:17.799Z,26.80
2022-09-23T02:40:52.630Z,25.00
2022-09-23T02:44:22.900Z,22.40
2022-09-23T02:47:53.386Z,22.80
2022-09-23T02:51:20.553Z,21.50
2022-09-23T02:54:48.338Z,18.10
2022-09-23T02:58:16.026Z,18.30
2022-09-23T03:01:56.683Z,20.30
2022-09-23T03:05:30.405Z,20.10
2022-09-23T03:09:02.129Z,20.50
2022-09-23T03:12:37.726Z,18.90
2022-09-23T03:16:12.383Z,19.50
2022-09-23T03:19:46.182Z,18.20
2022-09-23T03:23:17.789Z,19.60
2022-09-23T03:26:48.495Z,19.10
2022-09-23T03:30:16.436Z,18.60
2022-09-23T03:33:48.616Z,17.90
2022-09-23T03:37:19.823Z,16.70
2022-09-23T03:40:51.296Z,15.20
2022-09-23T03:44:19.801Z,15.60
2022-09-23T03:47:48.012Z,15.80
2022-09-23T03:51:24.071Z,15.00
2022-09-23T03:54:52.353Z,14.70
2022-09-23T03:58:18.898Z,14.50
2022-09-23T04:01:46.208Z,13.50
2022-09-23T04:05:14.633Z,14.70
2022-09-23T04:08:42.381Z,13.50
2022-09-23T04:12:09.577Z,13.40
2022-09-23T04:15:36.265Z,15.00
2022-09-23T04:19:04.943Z,13.50
2022-09-23T04:22:32.047Z,12.80
2022-09-23T04:25:59.224Z,11.90
2022-09-23T04:29:26.444Z,11.50
2022-09-23T04:32:55.565Z,12.30
2022-09-23T04:36:22.983Z,10.70
2022-09-23T04:39:49.445Z,10.30
2022-09-23T04:43:16.610Z,9.70
2022-09-23T04:46:47.745Z,10.10
2022-09-23T04:50:14.513Z,9.90
2022-09-23T04:53:43.548Z,8.90
2022-09-23T04:57:11.217Z,8.90
2022-09-23T05:00:38.300Z,8.70
2022-09-23T05:04:07.944Z,8.50
2022-09-23T05:07:34.472Z,9.10
2022-09-23T05:11:02.768Z,8.90
2022-09-23T05:14:29.794Z,9.00
2022-09-23T05:17:58.966Z,10.30
2022-09-23T05:21:29.412Z,10.70
2022-09-23T05:24:56.714Z,10.60
2022-09-23T05:28:23.505Z,10.80
2022-09-23T05:31:50.580Z,11.20
2022-09-23T05:35:17.516Z,14.60
2022-09-23T05:38:44.426Z,14.40
2022-09-23T05:42:12.665Z,12.30
2022-09-23T05:45:39.868Z,13.50
2022-09-23T05:49:07.675Z,11.50
2022-09-23T05:52:35.163Z,13.00
2022-09-23T05:56:01.946Z,12.70
2022-09-23T05:59:28.658Z,13.60
2022-09-23T06:02:55.603Z,12.10
2022-09-23T06:06:27.192Z,11.30
2022-09-23T06:09:54.184Z,11.80
2022-09-23T06:13:20.883Z,13.00
2022-09-23T06:16:47.919Z,14.10
2022-09-23T06:20:14.673Z,11.00
2022-09-23T06:23:42.247Z,10.30
2022-09-23T06:27:11.210Z,11.50
2022-09-23T06:30:42.695Z,12.60
2022-09-23T06:34:13.203Z,10.50
2022-09-23T06:37:41.112Z,10.30
2022-09-23T06:41:08.209Z,7.50
2022-09-23T06:44:34.854Z,6.80
2022-09-23T06:48:05.186Z,6.50
2022-09-23T06:51:31.895Z,5.20
2022-09-23T06:54:58.887Z,5.60
2022-09-23T06:58:27.146Z,5.20
2022-09-23T07:01:54.148Z,9.20
2022-09-23T07:05:22.655Z,9.30
2022-09-23T07:08:51.461Z,6.40
2022-09-23T07:12:18.513Z,4.20
2022-09-23T07:15:50.963Z,4.80
2022-09-23T07:19:17.986Z,4.30
2022-09-23T07:22:44.520Z,4.70
2022-09-23T07:26:11.389Z,5.40
2022-09-23T07:29:47.105Z,6.00
2022-09-23T07:33:28.294Z,5.70
2022-09-23T07:36:58.457Z,6.20
2022-09-23T07:40:25.224Z,5.50
2022-09-23T07:43:55.956Z,4.40
2022-09-23T07:47:23.514Z,2.90
2022-09-23T07:50:50.841Z,2.40
2022-09-23T07:54:18.952Z,2.40
2022-09-23T07:57:46.621Z,2.10
2022-09-23T08:01:14.770Z,2.90
2022-09-23T08:04:42.475Z,3.00
2022-09-23T08:08:09.300Z,2.60
2022-09-23T08:11:42.011Z,1.90
2022-09-23T08:15:10.227Z,1.40
2022-09-23T08:18:37.353Z,1.80
2022-09-23T08:22:04.046Z,1.70
2022-09-23T08:25:34.335Z,1.70
2022-09-23T08:29:02.614Z,1.80
2022-09-23T08:32:29.358Z,1.20
2022-09-23T08:36:00.083Z,1.20
2022-09-23T08:39:27.154Z,1.10
2022-09-23T08:42:54.039Z,0.70
2022-09-23T08:46:28.120Z,0.70
2022-09-23T08:50:07.665Z,1.00
2022-09-23T08:53:37.513Z,1.10
2022-09-23T08:57:07.182Z,0.90
2022-09-23T09:00:40.171Z,0.70
2022-09-23T09:04:23.291Z,0.80
2022-09-23T09:07:50.823Z,1.60
2022-09-23T09:11:19.459Z,0.80
2022-09-23T09:14:59.254Z,1.10
2022-09-23T09:18:27.462Z,0.90
2022-09-23T09:21:56.454Z,1.00
2022-09-23T09:25:34.471Z,0.80
2022-09-23T09:29:30.757Z,1.10
2022-09-23T09:32:59.541Z,1.70
2022-09-23T09:36:36.264Z,0.70
2022-09-23T09:40:03.620Z,0.40
2022-09-23T09:43:32.361Z,0.70
2022-09-23T09:47:21.176Z,0.70
2022-09-23T09:50:52.891Z,1.60
2022-09-23T09:54:27.277Z,0.90
2022-09-23T09:58:02.006Z,0.90
2022-09-23T10:01:31.659Z,1.00
2022-09-23T10:05:01.808Z,0.90
2022-09-23T10:08:35.336Z,1.00
2022-09-23T10:12:18.815Z,0.70
2022-09-23T10:15:46.919Z,1.30
2022-09-23T10:19:28.676Z,0.90
2022-09-23T10:22:56.994Z,5.60
2022-09-23T10:26:33.808Z,1.30
2022-09-23T10:30:21.951Z,0.70
2022-09-23T10:33:54.841Z,0.90
2022-09-23T10:37:28.247Z,0.70
2022-09-23T10:41:15.379Z,0.80
2022-09-23T10:45:11.927Z,0.60
2022-09-23T10:48:52.003Z,0.60
2022-09-23T10:52:36.982Z,0.60
2022-09-23T10:56:17.323Z,0.90
2022-09-23T10:59:57.305Z,0.80
2022-09-23T11:03:49.491Z,0.70
2022-09-23T11:07:26.539Z,0.60
2022-09-23T11:11:13.745Z,0.90
2022-09-23T11:15:18.932Z,0.70
2022-09-23T11:19:05.986Z,0.70
2022-09-23T11:22:57.534Z,0.80
2022-09-23T11:26:41.180Z,0.70
2022-09-23T11:30:24.448Z,0.60
2022-09-23T11:34:11.564Z,0.80
2022-09-23T11:37:44.227Z,0.90
2022-09-23T11:41:24.471Z,0.90
2022-09-23T11:44:59.714Z,0.90
2022-09-23T11:48:32.555Z,0.80
2022-09-23T11:52:09.827Z,0.90
2022-09-23T11:55:55.493Z,1.00
2022-09-23T11:59:40.659Z,0.80
2022-09-23T12:06:47.072Z,0.80
2022-09-23T12:10:17.507Z,0.60
2022-09-23T12:13:58.388Z,0.50
2022-09-23T12:17:40.204Z,0.60
2022-09-23T12:21:49.108Z,1.00
2022-09-23T12:25:34.931Z,0.80
2022-09-23T12:29:06.998Z,0.70
2022-09-23T12:32:35.391Z,1.40
2022-09-23T12:36:08.503Z,1.20
2022-09-23T12:39:38.826Z,1.70
2022-09-23T12:43:05.912Z,0.80
2022-09-23T12:46:33.337Z,0.60
2022-09-23T12:50:01.624Z,0.90
2022-09-23T12:53:55.739Z,0.70
2022-09-23T12:57:44.144Z,0.60
2022-09-23T13:01:19.869Z,0.50
2022-09-23T13:05:18.458Z,0.50
2022-09-23T13:08:47.596Z,0.50
2022-09-23T13:12:23.063Z,0.60
2022-09-23T13:15:51.376Z,0.70
2022-09-23T13:19:50.381Z,0.60
2022-09-23T13:23:35.892Z,0.60
2022-09-23T13:27:14.673Z,0.70
2022-09-23T13:30:52.564Z,0.60
2022-09-23T13:34:23.264Z,0.50
2022-09-23T13:37:54.598Z,0.70
2022-09-23T13:41:28.876Z,0.50
2022-09-23T13:44:59.484Z,0.60
2022-09-23T13:48:29.602Z,0.60
2022-09-23T13:51:58.034Z,0.70
2022-09-23T13:55:30.402Z,0.60
2022-09-23T13:59:24.314Z,0.50
2022-09-23T14:02:53.354Z,0.60
2022-09-23T14:06:31.291Z,0.70
2022-09-23T14:09:58.900Z,0.80
2022-09-23T14:13:36.816Z,1.00
2022-09-23T14:17:05.219Z,0.60
2022-09-23T14:20:35.088Z,0.50
2022-09-23T14:24:13.681Z,0.80
2022-09-23T14:27:42.291Z,0.60
2022-09-23T14:31:09.517Z,0.60
2022-09-23T14:34:55.055Z,0.80
2022-09-23T14:38:48.348Z,0.70
2022-09-23T14:42:17.388Z,0.70
2022-09-23T14:45:47.627Z,0.60
2022-09-23T14:49:19.524Z,0.60
2022-09-23T14:52:53.589Z,0.80
2022-09-23T14:56:23.119Z,0.50
2022-09-23T14:59:56.232Z,0.60
2022-09-23T15:03:23.828Z,0.70
2022-09-23T15:06:56.276Z,0.50
2022-09-23T15:10:28.561Z,0.60
2022-09-23T15:13:58.117Z,0.50
2022-09-23T15:17:35.264Z,0.40
2022-09-23T15:21:11.121Z,0.60
2022-09-23T15:24:45.245Z,0.70
2022-09-23T15:28:27.759Z,0.60
2022-09-23T15:32:00.623Z,0.60
2022-09-23T15:38:57.981Z,0.50
2022-09-23T15:42:26.540Z,0.90
2022-09-23T15:45:57.364Z,0.90
2022-09-23T15:49:34.377Z,0.90
2022-09-23T15:53:06.454Z,1.00
2022-09-23T15:56:35.362Z,1.10
2022-09-23T16:00:04.125Z,1.00
2022-09-23T16:03:40.443Z,1.00
2022-09-23T16:07:10.738Z,1.00
2022-09-23T16:10:41.215Z,1.20
2022-09-23T16:14:11.453Z,1.60
2022-09-23T16:17:39.894Z,2.70
2022-09-23T16:21:12.418Z,2.90
2022-09-23T16:24:44.068Z,5.00
2022-09-23T16:28:11.134Z,9.10
2022-09-23T16:31:39.063Z,13.90
2022-09-23T16:35:08.156Z,15.60
2022-09-23T16:38:39.838Z,16.60
2022-09-23T16:42:07.691Z,19.40
2022-09-23T16:45:35.034Z,20.20
2022-09-23T16:49:02.582Z,23.50
2022-09-23T16:52:31.886Z,26.00
2022-09-23T16:56:01.557Z,34.90
2022-09-23T16:59:49.215Z,41.50
2022-09-23T17:03:34.053Z,43.80
2022-09-23T17:07:01.467Z,50.70
2022-09-23T17:10:28.912Z,49.00
2022-09-23T17:13:56.915Z,42.40
2022-09-23T17:17:23.765Z,39.30
2022-09-23T17:21:00.289Z,28.50
2022-09-23T17:24:27.752Z,24.20
2022-09-23T17:27:56.596Z,23.50
2022-09-23T17:31:24.772Z,23.20
2022-09-23T17:34:51.631Z,23.20
2022-09-23T17:38:18.566Z,22.50
2022-09-23T17:41:46.940Z,23.20
2022-09-23T17:45:14.168Z,25.30
2022-09-23T17:48:44.427Z,22.80
2022-09-23T17:52:13.784Z,26.00
2022-09-23T17:55:44.549Z,35.60
2022-09-23T17:59:17.594Z,36.30
2022-09-23T18:02:45.123Z,50.50
2022-09-23T18:06:17.157Z,57.80
2022-09-23T18:09:44.658Z,58.00
2022-09-23T18:13:11.654Z,57.40
2022-09-23T18:16:42.295Z,45.90
2022-09-23T18:20:12.540Z,47.50
2022-09-23T18:23:39.340Z,44.80
2022-09-23T18:27:08.081Z,39.20
2022-09-23T18:30:35.105Z,39.80
2022-09-23T18:34:03.592Z,37.70
2022-09-23T18:37:33.721Z,36.40
2022-09-23T18:41:04.796Z,35.40
2022-09-23T18:44:34.106Z,32.70
2022-09-23T18:48:18.731Z,23.20
2022-09-23T18:51:54.819Z,21.10
2022-09-23T18:55:23.064Z,23.90
2022-09-23T18:58:52.789Z,28.80
2022-09-23T19:02:20.139Z,24.90
2022-09-23T19:05:47.112Z,29.80
2022-09-23T19:09:16.052Z,28.10
2022-09-23T19:12:43.217Z,30.50
2022-09-23T19:16:12.812Z,23.50
2022-09-23T19:19:40.577Z,19.40
2022-09-23T19:23:08.151Z,18.90
2022-09-23T19:26:37.812Z,19.00
2022-09-23T19:30:07.444Z,16.50
2022-09-23T19:33:33.827Z,17.60
2022-09-23T19:37:01.693Z,23.30
2022-09-23T19:40:29.932Z,24.50
2022-09-23T19:44:03.863Z,27.30
2022-09-23T19:47:32.344Z,25.50
2022-09-23T19:50:59.475Z,17.20
2022-09-23T19:54:27.838Z,20.70
2022-09-23T19:57:55.785Z,16.40
2022-09-23T20:01:22.475Z,13.10
2022-09-23T20:04:51.535Z,10.80
2022-09-23T20:08:20.292Z,9.30
2022-09-23T20:11:47.353Z,9.30
2022-09-23T20:15:15.255Z,9.60
2022-09-23T20:18:44.526Z,11.00
2022-09-23T20:22:32.955Z,10.30
2022-09-23T20:26:19.804Z,11.90
2022-09-23T20:29:47.055Z,11.80
2022-09-23T20:33:15.995Z,12.80
2022-09-23T20:36:43.881Z,10.30
2022-09-23T20:40:12.421Z,10.80
2022-09-23T20:43:40.037Z,10.50
2022-09-23T20:47:09.020Z,9.30
2022-09-23T20:50:36.363Z,8.40
2022-09-23T20:54:04.394Z,6.60
2022-09-23T20:57:31.743Z,6.90
2022-09-23T21:01:04.121Z,7.50
2022-09-23T21:04:32.175Z,9.20
2022-09-23T21:08:02.819Z,8.70
2022-09-23T21:11:30.964Z,14.20
2022-09-23T21:14:58.017Z,15.40
2022-09-23T21:18:25.632Z,16.90
2022-09-23T21:21:52.524Z,19.80
2022-09-23T21:25:28.799Z,19.70
2022-09-23T21:28:59.260Z,20.40
2022-09-23T21:32:26.295Z,20.40
2022-09-23T21:35:58.388Z,21.80
2022-09-23T21:39:29.924Z,25.60
2022-09-23T21:43:00.898Z,23.60
2022-09-23T21:46:28.517Z,25.20
2022-09-23T21:49:55.648Z,27.70
2022-09-23T21:53:23.908Z,27.10
2022-09-23T21:56:50.960Z,29.40
2022-09-23T22:00:20.890Z,27.80
2022-09-23T22:03:50.817Z,24.90
2022-09-23T22:07:17.779Z,19.10
2022-09-23T22:10:45.225Z,17.80
2022-09-23T22:14:14.547Z,17.50
2022-09-23T22:17:42.116Z,16.70
2022-09-23T22:21:10.292Z,15.00
2022-09-23T22:24:37.125Z,14.80
2022-09-23T22:28:21.890Z,11.90
2022-09-23T22:32:05.987Z,11.70
2022-09-23T22:35:32.732Z,10.90
2022-09-23T22:39:03.217Z,10.80
2022-09-23T22:42:30.780Z,10.60
2022-09-23T22:45:57.581Z,11.80
2022-09-23T22:49:25.252Z,14.70
2022-09-23T22:52:56.095Z,15.40
2022-09-23T22:56:23.332Z,15.50
2022-09-23T22:59:50.201Z,18.00
2022-09-23T23:03:20.710Z,17.90
2022-09-23T23:06:48.925Z,18.80
2022-09-23T23:10:17.214Z,17.70
2022-09-23T23:13:44.673Z,17.90
2022-09-23T23:17:11.261Z,17.10
2022-09-23T23:20:38.140Z,16.60
2022-09-23T23:24:06.570Z,16.80
2022-09-23T23:27:33.199Z,15.10
2022-09-23T23:31:05.902Z,14.70
2022-09-23T23:34:34.165Z,14.20
2022-09-23T23:38:00.500Z,11.80
2022-09-23T23:41:28.183Z,10.90
2022-09-23T23:44:55.434Z,10.70
2022-09-23T23:48:22.947Z,10.70
2022-09-23T23:51:50.359Z,10.70
2022-09-23T23:55:17.864Z,10.00
2022-09-23T23:58:45.782Z,10.00
